Boyntonville, New York
Current Conditions -  °F | °C
As of 11:54 PM on Friday 21 Nov 2014 (Local Time) from KDDH Reporting Station
Overcast Overcast  
Wind Chill: 22°   Ceiling: 4500
Heat Index: 22°   Visibility: 10mi
Dew Point: 13°   Wind: 3mph
Humidity: 68%   Direction: 210°SSW
Pressure: 30.38"   Gusts: NA
Location:  42.8782°N, 73.3625°W
Report Text: KDDH 220454Z AUTO 21003KT 10SM OVC045 M06/M11 A3038 RMK AO2 SLP300 T10561106 410061061
Loading
Personal Weather Stations






























Interactive Weather Map New forecast layout! Learn more

10-Day Weather Forecast

Advertisements
Track Severe Weather on mobile